createdAt,value
2019-03-05T00:01:57.701Z,95568.81
2019-03-05T00:05:06.021Z,95572.30
2019-03-05T00:10:48.404Z,95562.68
2019-03-05T00:13:36.003Z,95582.79
2019-03-05T00:16:23.729Z,95583.81
2019-03-05T00:18:52.159Z,95573.45
2019-03-05T00:21:20.555Z,95584.50
2019-03-05T00:24:28.900Z,95594.03
2019-03-05T00:26:57.295Z,95602.59
2019-03-05T00:30:05.727Z,95590.61
2019-03-05T00:32:34.193Z,95591.09
2019-03-05T00:35:41.237Z,95606.58
2019-03-05T00:38:48.233Z,95599.34
2019-03-05T00:41:56.963Z,95606.73
2019-03-05T00:45:05.282Z,95610.50
2019-03-05T00:48:12.327Z,95610.34
2019-03-05T00:51:24.944Z,95633.71
2019-03-05T00:54:30.762Z,95634.02
2019-03-05T00:57:37.749Z,95619.72
2019-03-05T01:00:46.250Z,95623.50
2019-03-05T01:03:53.258Z,95632.88
2019-03-05T01:07:01.595Z,95637.98
2019-03-05T01:09:49.255Z,95636.00
2019-03-05T01:17:27.575Z,95669.84
2019-03-05T01:19:56.034Z,95662.11
2019-03-05T01:25:51.849Z,95661.95
2019-03-05T01:28:20.249Z,95679.86
2019-03-05T01:31:07.817Z,95667.56
2019-03-05T01:37:03.829Z,95677.42
2019-03-05T01:42:21.391Z,95667.88
2019-03-05T01:44:49.795Z,95657.20
2019-03-05T01:47:18.192Z,95659.02
2019-03-05T01:52:20.355Z,95650.78
2019-03-05T01:54:48.777Z,95642.08
2019-03-05T01:57:36.367Z,95637.79
2019-03-05T02:00:44.780Z,95628.43
2019-03-05T02:03:13.177Z,95632.22
2019-03-05T02:05:41.579Z,95611.99
2019-03-05T02:11:23.499Z,95618.91
2019-03-05T02:13:51.911Z,95620.38
2019-03-05T02:19:48.063Z,95624.64
2019-03-05T02:22:35.799Z,95621.04
2019-03-05T02:25:44.155Z,95613.80
2019-03-05T02:28:51.141Z,95613.45
2019-03-05T02:31:58.183Z,95609.05
2019-03-05T02:35:05.298Z,95610.84
2019-03-05T02:38:13.668Z,95610.52
2019-03-05T02:41:22.026Z,95616.91
2019-03-05T02:44:29.405Z,95613.97
2019-03-05T02:47:37.745Z,95629.59
2019-03-05T02:50:44.829Z,95627.61
2019-03-05T02:53:53.182Z,95622.17
2019-03-05T02:57:01.617Z,95628.27
2019-03-05T02:59:30.010Z,95628.43
2019-03-05T03:02:17.557Z,95622.33
2019-03-05T03:07:47.184Z,95631.52
2019-03-05T03:10:55.506Z,95626.27
2019-03-05T03:13:23.922Z,95626.27
2019-03-05T03:15:52.315Z,95625.30
2019-03-05T03:18:20.708Z,95627.27
2019-03-05T03:23:41.900Z,95631.56
2019-03-05T03:28:44.696Z,95638.10
2019-03-05T03:33:46.840Z,95645.33
2019-03-05T03:36:34.454Z,95642.70
2019-03-05T03:41:51.938Z,95650.27
2019-03-05T03:44:20.340Z,95650.08
2019-03-05T03:46:48.731Z,95651.39
2019-03-05T03:49:17.149Z,95655.48
2019-03-05T03:51:45.580Z,95656.64
2019-03-05T03:54:13.971Z,95651.39
2019-03-05T03:59:15.840Z,95643.85
2019-03-05T04:01:44.232Z,95631.21
2019-03-05T04:06:46.764Z,95634.00
2019-03-05T04:09:15.194Z,95641.89
2019-03-05T04:11:43.577Z,95645.17
2019-03-05T04:14:11.976Z,95649.94
2019-03-05T04:22:12.193Z,95653.91
2019-03-05T04:24:40.587Z,95652.25
2019-03-05T04:27:09.060Z,95653.56
2019-03-05T04:32:11.945Z,95643.70
2019-03-05T04:34:40.354Z,95647.80
2019-03-05T04:37:08.743Z,95647.65
2019-03-05T04:39:37.139Z,95652.25
2019-03-05T04:57:33.065Z,95667.52
2019-03-05T05:02:35.407Z,95664.42
2019-03-05T05:05:03.865Z,95663.27
2019-03-05T05:07:32.375Z,95663.12
2019-03-05T05:10:00.771Z,95670.66
2019-03-05T05:12:29.172Z,95668.88
2019-03-05T05:17:31.327Z,95673.45
2019-03-05T05:19:59.747Z,95662.92
2019-03-05T05:22:28.147Z,95662.11
2019-03-05T05:24:56.536Z,95669.84
2019-03-05T05:29:58.959Z,95666.41
2019-03-05T05:32:27.361Z,95672.48
2019-03-05T05:34:55.803Z,95671.01
2019-03-05T05:37:24.205Z,95670.19
2019-03-05T05:40:31.203Z,95668.38
2019-03-05T05:43:18.914Z,95678.23
2019-03-05T05:46:27.589Z,95679.39
2019-03-05T05:49:15.181Z,95674.45
2019-03-05T05:54:17.065Z,95676.11
2019-03-05T05:59:19.486Z,95683.00
2019-03-05T06:01:47.860Z,95680.87
2019-03-05T06:04:16.253Z,95684.00
2019-03-05T06:06:44.644Z,95673.63
2019-03-05T06:11:46.703Z,95683.97
2019-03-05T06:14:15.047Z,95685.94
2019-03-05T06:19:36.612Z,95684.46
2019-03-05T06:22:24.230Z,95683.30
2019-03-05T06:24:52.619Z,95693.67
2019-03-05T06:27:21.013Z,95703.22
2019-03-05T06:29:49.433Z,95710.11
2019-03-05T06:32:36.951Z,95716.69
2019-03-05T06:35:45.291Z,95721.64
2019-03-05T06:38:13.767Z,95727.71
2019-03-05T06:40:42.187Z,95725.59
2019-03-05T06:43:10.595Z,95709.14
2019-03-05T06:45:58.189Z,95713.25
2019-03-05T06:48:26.625Z,95725.08
2019-03-05T06:50:55.039Z,95724.11
2019-03-05T06:53:23.439Z,95720.67
2019-03-05T06:58:44.945Z,95731.51
2019-03-05T07:03:47.241Z,95753.56
2019-03-05T07:06:54.336Z,95753.55
2019-03-05T07:10:02.759Z,95757.50
2019-03-05T07:13:11.235Z,95744.49
2019-03-05T07:16:19.552Z,95754.50
2019-03-05T07:19:27.907Z,95743.13
2019-03-05T07:22:36.225Z,95748.58
2019-03-05T07:25:44.571Z,95744.14
2019-03-05T07:28:12.972Z,95743.48
2019-03-05T07:30:41.405Z,95753.70
2019-03-05T07:33:09.784Z,95756.14
2019-03-05T07:35:38.183Z,95754.01
2019-03-05T07:38:06.575Z,95750.22
2019-03-05T07:43:36.260Z,95752.19
2019-03-05T07:48:32.563Z,95755.81
2019-03-05T07:51:00.959Z,95759.11
2019-03-05T07:56:22.505Z,95762.91
2019-03-05T08:01:44.538Z,95745.36
2019-03-05T08:07:07.480Z,95759.34
2019-03-05T08:10:15.803Z,95750.63
2019-03-05T08:13:24.220Z,95757.52
2019-03-05T08:16:31.082Z,95752.52
2019-03-05T08:21:33.361Z,95747.58
2019-03-05T08:24:01.788Z,95747.53
2019-03-05T08:26:30.183Z,95750.44
2019-03-05T08:28:58.577Z,95746.11
2019-03-05T08:34:01.476Z,95735.16
2019-03-05T08:36:29.906Z,95744.14
2019-03-05T08:38:58.290Z,95743.95
2019-03-05T08:41:26.709Z,95751.12
2019-03-05T08:43:55.126Z,95738.52
2019-03-05T08:46:23.519Z,95759.27
2019-03-05T08:48:51.910Z,95756.45
2019-03-05T08:51:20.339Z,95758.25
2019-03-05T08:53:49.879Z,95761.06
2019-03-05T08:56:18.853Z,95761.06
2019-03-05T08:58:47.287Z,95760.02
2019-03-05T09:01:15.705Z,95770.06
2019-03-05T09:03:44.099Z,95776.30
2019-03-05T09:06:12.510Z,95749.72
2019-03-05T09:08:40.986Z,95767.77
2019-03-05T09:11:09.398Z,95789.02
2019-03-05T09:13:57.172Z,95784.09
2019-03-05T09:16:25.562Z,95774.46
2019-03-05T09:18:53.967Z,95781.41
2019-03-05T09:23:56.830Z,95765.64
2019-03-05T09:26:51.136Z,95769.02
2019-03-05T09:29:14.578Z,95771.73
2019-03-05T09:31:42.970Z,95779.80
2019-03-05T09:34:11.426Z,95776.64
2019-03-05T09:36:59.064Z,95782.66
2019-03-05T09:39:27.488Z,95773.27
2019-03-05T09:41:55.895Z,95804.48
2019-03-05T09:44:43.544Z,95780.12
2019-03-05T09:47:11.938Z,95767.48
2019-03-05T09:49:40.339Z,95780.19
2019-03-05T09:52:08.769Z,95790.37
2019-03-05T09:54:37.160Z,95770.55
2019-03-05T09:57:05.560Z,95782.52
2019-03-05T09:59:33.989Z,95779.31
2019-03-05T10:02:21.663Z,95772.77
2019-03-05T10:07:24.394Z,95764.00
2019-03-05T10:10:12.252Z,95775.78
2019-03-05T10:15:48.786Z,95772.57
2019-03-05T10:18:17.268Z,95764.63
2019-03-05T10:21:05.158Z,95783.28
2019-03-05T10:23:33.658Z,95776.13
2019-03-05T10:26:42.078Z,95783.32
2019-03-05T10:29:10.540Z,95786.78
2019-03-05T10:31:38.932Z,95780.04
2019-03-05T10:34:26.744Z,95782.41
2019-03-05T10:36:55.143Z,95773.48
2019-03-05T10:40:03.562Z,95771.02
2019-03-05T10:43:11.890Z,95758.31
2019-03-05T10:46:20.232Z,95751.75
2019-03-05T10:48:48.648Z,95772.09
2019-03-05T10:51:58.803Z,95759.72
2019-03-05T10:54:27.085Z,95754.61
2019-03-05T10:56:55.481Z,95768.34
2019-03-05T10:59:23.916Z,95757.63
2019-03-05T11:02:32.232Z,95756.05
2019-03-05T11:11:13.568Z,95742.30
2019-03-05T11:13:39.835Z,95741.31
2019-03-05T11:16:49.984Z,95722.96
2019-03-05T11:19:18.290Z,95728.00
2019-03-05T11:22:26.607Z,95736.03
2019-03-05T11:27:28.597Z,95734.90
2019-03-05T11:29:57.012Z,95734.34
2019-03-05T11:34:59.101Z,95713.91
2019-03-05T11:37:27.600Z,95714.67
2019-03-05T11:39:56.000Z,95717.22
2019-03-05T11:42:24.396Z,95718.75
2019-03-05T11:47:26.773Z,95717.64
2019-03-05T11:49:55.173Z,95710.55
2019-03-05T11:52:23.591Z,95723.36
2019-03-05T11:54:51.986Z,95714.78
2019-03-05T11:57:20.384Z,95712.83
2019-03-05T11:59:48.813Z,95714.45
2019-03-05T12:02:21.666Z,95720.24
2019-03-05T12:04:47.341Z,95719.55
2019-03-05T12:09:49.438Z,95727.53
2019-03-05T12:12:17.845Z,95740.55
2019-03-05T12:14:46.241Z,95726.06
2019-03-05T12:17:14.633Z,95737.80
2019-03-05T12:19:43.065Z,95732.48
2019-03-05T12:22:11.455Z,95730.66
2019-03-05T12:25:01.901Z,95724.03
2019-03-05T12:27:29.199Z,95717.91
2019-03-05T12:29:57.594Z,95729.34
2019-03-05T12:32:26.045Z,95720.30
2019-03-05T12:34:54.444Z,95713.32
2019-03-05T12:37:22.834Z,95709.94
2019-03-05T12:39:51.295Z,95706.33
2019-03-05T12:42:19.685Z,95721.03
2019-03-05T12:44:48.075Z,95691.27
2019-03-05T12:49:50.766Z,95689.50
2019-03-05T12:55:53.621Z,95670.63
2019-03-05T13:04:05.501Z,95660.41
2019-03-05T13:06:33.899Z,95667.88
2019-03-05T13:09:02.299Z,95665.22
2019-03-05T13:14:08.393Z,95653.11
2019-03-05T13:19:28.826Z,95657.39
2019-03-05T13:24:30.942Z,95646.25
2019-03-05T13:26:59.364Z,95649.33
2019-03-05T13:29:27.780Z,95653.31
2019-03-05T13:31:56.182Z,95658.30
2019-03-05T13:34:24.585Z,95659.69
2019-03-05T13:39:26.802Z,95645.66
2019-03-05T13:44:50.202Z,95661.56
2019-03-05T13:47:18.596Z,95669.27
2019-03-05T13:50:25.609Z,95672.81
2019-03-05T13:53:32.588Z,95665.94
2019-03-05T13:56:42.220Z,95669.16
2019-03-05T13:59:49.728Z,95672.56
2019-03-05T14:02:58.211Z,95665.53
2019-03-05T14:06:06.520Z,95665.31
2019-03-05T14:09:15.000Z,95664.42
2019-03-05T14:12:23.309Z,95644.34
2019-03-05T14:14:51.835Z,95646.91
2019-03-05T14:23:18.079Z,95644.89
2019-03-05T14:25:46.560Z,95652.46
2019-03-05T14:28:15.032Z,95648.48
2019-03-05T14:31:23.465Z,95660.80
2019-03-05T14:33:51.839Z,95649.55
2019-03-05T14:36:20.242Z,95648.22
2019-03-05T14:44:40.239Z,95636.09
2019-03-05T14:47:46.178Z,95636.28
2019-03-05T14:50:54.561Z,95634.91
2019-03-05T14:53:23.555Z,95638.53
2019-03-05T14:59:00.238Z,95641.31
2019-03-05T15:01:29.126Z,95641.80
2019-03-05T15:03:58.171Z,95642.64
2019-03-05T15:06:27.879Z,95647.62
2019-03-05T15:08:57.160Z,95646.62
2019-03-05T15:11:44.893Z,95651.41
2019-03-05T15:20:37.677Z,95670.41
2019-03-05T15:29:35.425Z,95659.67
2019-03-05T15:41:28.813Z,95664.30
2019-03-05T15:44:37.719Z,95658.42
2019-03-05T15:47:27.107Z,95665.23
2019-03-05T15:50:17.392Z,95685.48
2019-03-05T15:53:05.149Z,95687.07
2019-03-05T15:55:53.560Z,95681.44
2019-03-05T16:05:11.636Z,95704.27
2019-03-05T16:07:34.981Z,95698.97
2019-03-05T16:10:23.485Z,95705.90
2019-03-05T16:13:15.338Z,95713.09
2019-03-05T16:15:45.475Z,95720.29
2019-03-05T16:18:12.442Z,95726.45
2019-03-05T16:21:02.558Z,95724.86
2019-03-05T16:23:30.299Z,95730.03
2019-03-05T16:25:58.701Z,95733.44
2019-03-05T16:28:27.144Z,95742.72
2019-03-05T16:31:14.667Z,95737.01
2019-03-05T16:34:02.484Z,95739.02
2019-03-05T16:36:50.010Z,95737.60
2019-03-05T16:39:58.577Z,95737.98
2019-03-05T16:45:35.261Z,95744.96
2019-03-05T16:51:12.057Z,95753.31
2019-03-05T16:53:59.588Z,95757.33
2019-03-05T16:59:41.893Z,95765.19
2019-03-05T17:02:29.433Z,95762.81
2019-03-05T17:10:53.826Z,95770.41
2019-03-05T17:13:22.241Z,95773.61
2019-03-05T17:16:30.620Z,95789.00
2019-03-05T17:18:59.107Z,95794.33
2019-03-05T17:21:46.724Z,95806.91
2019-03-05T17:24:56.770Z,95807.77
2019-03-05T17:29:58.902Z,95812.95
2019-03-05T17:32:29.679Z,95820.25
2019-03-05T17:34:58.093Z,95822.11
2019-03-05T17:38:06.419Z,95821.14
2019-03-05T17:43:09.298Z,95854.06
2019-03-05T17:48:13.832Z,95847.83
2019-03-05T17:50:42.318Z,95852.47
2019-03-05T17:53:50.649Z,95850.84
2019-03-05T17:56:19.076Z,95852.49
2019-03-05T17:59:06.672Z,95862.11
2019-03-05T18:01:35.106Z,95872.02
2019-03-05T18:04:03.500Z,95878.48
2019-03-05T18:06:51.122Z,95875.54
2019-03-05T18:15:20.725Z,95883.80
2019-03-05T18:17:49.154Z,95885.73
2019-03-05T18:20:57.476Z,95896.30
2019-03-05T18:23:25.938Z,95900.94
2019-03-05T18:25:54.340Z,95908.72
2019-03-05T18:28:22.722Z,95931.47
2019-03-05T18:31:10.713Z,95924.56
2019-03-05T18:33:39.134Z,95915.31
2019-03-05T18:39:00.932Z,95936.78
2019-03-05T18:42:09.579Z,95940.76
2019-03-05T18:47:44.836Z,95962.05
2019-03-05T18:50:32.574Z,95949.33
2019-03-05T18:53:40.932Z,95935.31
2019-03-05T18:56:09.330Z,95930.53
2019-03-05T18:58:37.738Z,95928.71
2019-03-05T19:01:48.128Z,95922.92
2019-03-05T19:04:16.602Z,95932.00
2019-03-05T19:06:46.744Z,95937.28
2019-03-05T19:09:15.195Z,95930.52
2019-03-05T19:17:24.549Z,95934.09
2019-03-05T19:19:53.023Z,95929.47
2019-03-05T19:22:40.618Z,95930.25
2019-03-05T19:26:00.811Z,95930.06
2019-03-05T19:28:19.082Z,95927.39
2019-03-05T19:31:27.503Z,95939.91
2019-03-05T19:33:55.907Z,95942.52
2019-03-05T19:36:43.609Z,95951.43
2019-03-05T19:39:51.936Z,95952.24
2019-03-05T19:44:56.691Z,95978.36
2019-03-05T19:49:58.782Z,95997.23
2019-03-05T19:52:27.164Z,96014.93
2019-03-05T19:57:29.129Z,96034.12
2019-03-05T19:59:57.540Z,96044.08
2019-03-05T20:02:25.931Z,96041.43
2019-03-05T20:04:54.364Z,96038.31
2019-03-05T20:07:22.778Z,96045.28
2019-03-05T20:09:52.901Z,96057.34
2019-03-05T20:12:21.302Z,96066.25
2019-03-05T20:14:49.723Z,96067.91
2019-03-05T20:17:18.126Z,96074.98
2019-03-05T20:20:05.942Z,96088.69
2019-03-05T20:22:34.342Z,96092.00
2019-03-05T20:25:22.090Z,96094.45
2019-03-05T20:27:50.558Z,96106.16
2019-03-05T20:30:58.920Z,96122.16
2019-03-05T20:33:27.309Z,96127.62
2019-03-05T20:35:55.777Z,96124.98
2019-03-05T20:40:57.883Z,96150.02
2019-03-05T20:43:26.282Z,96159.44
2019-03-05T20:46:34.716Z,96155.12
2019-03-05T20:54:24.800Z,96162.53
2019-03-05T20:59:27.029Z,96166.19
2019-03-05T21:02:14.814Z,96160.56
2019-03-05T21:04:43.206Z,96160.09
2019-03-05T21:07:11.604Z,96159.59
2019-03-05T21:12:34.258Z,96174.45
2019-03-05T21:15:02.690Z,96175.63
2019-03-05T21:17:31.074Z,96175.63
2019-03-05T21:19:59.499Z,96179.58
2019-03-05T21:22:47.152Z,96177.45
2019-03-05T21:25:55.507Z,96177.45
2019-03-05T21:28:23.900Z,96186.18
2019-03-05T21:30:52.306Z,96193.75
2019-03-05T21:33:22.670Z,96193.09
2019-03-05T21:35:50.847Z,96199.53
2019-03-05T21:38:19.251Z,96202.17
2019-03-05T21:46:41.394Z,96188.16
2019-03-05T21:49:29.398Z,96195.23
2019-03-05T21:51:57.790Z,96185.67
2019-03-05T21:54:26.193Z,96184.82
2019-03-05T21:59:28.439Z,96174.42
2019-03-05T22:04:30.480Z,96174.09
2019-03-05T22:06:58.914Z,96168.31
2019-03-05T22:09:29.042Z,96170.80
2019-03-05T22:11:57.440Z,96167.81
2019-03-05T22:14:25.906Z,96167.50
2019-03-05T22:16:54.272Z,96161.88
2019-03-05T22:19:22.661Z,96162.22
2019-03-05T22:24:26.427Z,96162.53
2019-03-05T22:26:54.818Z,96161.88
2019-03-05T22:31:57.613Z,96172.42
2019-03-05T22:36:59.799Z,96171.45
2019-03-05T22:39:28.202Z,96165.83
2019-03-05T22:41:56.635Z,96160.55
2019-03-05T22:44:26.772Z,96164.51
2019-03-05T22:47:14.511Z,96168.63
2019-03-05T22:49:42.912Z,96162.03
2019-03-05T22:52:11.305Z,96154.27
2019-03-05T22:54:39.722Z,96162.17
2019-03-05T22:57:08.129Z,96160.70
2019-03-05T22:59:36.523Z,96152.94
2019-03-05T23:04:59.974Z,96157.70
2019-03-05T23:07:28.366Z,96155.71
2019-03-05T23:09:56.769Z,96153.06
2019-03-05T23:12:44.498Z,96161.63
2019-03-05T23:15:52.810Z,96155.31
2019-03-05T23:19:01.148Z,96163.88
2019-03-05T23:21:48.742Z,96158.75
2019-03-05T23:24:17.219Z,96162.70
2019-03-05T23:27:04.950Z,96162.70
2019-03-05T23:29:54.401Z,96164.03
2019-03-05T23:32:22.796Z,96167.16
2019-03-05T23:35:31.143Z,96167.66
2019-03-05T23:37:59.618Z,96169.97
2019-03-05T23:40:28.007Z,96169.97
2019-03-05T23:45:30.848Z,96167.67
2019-03-05T23:47:59.266Z,96158.28
2019-03-05T23:50:46.859Z,96157.28
2019-03-05T23:55:50.195Z,96160.46
2019-03-05T23:58:18.623Z,96161.78
